sensor_id;sensor_type;location;lat;lon;timestamp;temperature;humidity
21340;DHT22;10828;47.064;15.422;2023-08-07T00:00:35;15.60;99.90
21340;DHT22;10828;47.064;15.422;2023-08-07T00:03:01;15.60;99.90
21340;DHT22;10828;47.064;15.422;2023-08-07T00:05:26;15.40;99.90
21340;DHT22;10828;47.064;15.422;2023-08-07T00:07:52;15.30;99.90
21340;DHT22;10828;47.064;15.422;2023-08-07T00:10:17;15.30;99.90
21340;DHT22;10828;47.064;15.422;2023-08-07T00:12:44;15.20;99.90
21340;DHT22;10828;47.064;15.422;2023-08-07T00:15:10;15.20;99.90
21340;DHT22;10828;47.064;15.422;2023-08-07T00:17:37;15.10;99.90
21340;DHT22;10828;47.064;15.422;2023-08-07T00:20:04;15.00;99.90
21340;DHT22;10828;47.064;15.422;2023-08-07T00:22:30;15.00;99.90
21340;DHT22;10828;47.064;15.422;2023-08-07T00:24:55;15.00;99.90
21340;DHT22;10828;47.064;15.422;2023-08-07T00:27:21;14.90;99.90
21340;DHT22;10828;47.064;15.422;2023-08-07T00:29:46;14.90;99.90
21340;DHT22;10828;47.064;15.422;2023-08-07T00:32:12;14.90;99.90
21340;DHT22;10828;47.064;15.422;2023-08-07T00:34:38;14.90;99.90
21340;DHT22;10828;47.064;15.422;2023-08-07T00:37:03;15.00;99.90
21340;DHT22;10828;47.064;15.422;2023-08-07T00:39:29;15.10;99.90
21340;DHT22;10828;47.064;15.422;2023-08-07T00:41:54;15.10;99.90
21340;DHT22;10828;47.064;15.422;2023-08-07T00:44:20;15.10;99.90
21340;DHT22;10828;47.064;15.422;2023-08-07T00:46:46;15.10;99.90
21340;DHT22;10828;47.064;15.422;2023-08-07T00:49:12;15.20;99.90
21340;DHT22;10828;47.064;15.422;2023-08-07T00:51:39;15.20;99.90
21340;DHT22;10828;47.064;15.422;2023-08-07T00:54:05;15.20;99.90
21340;DHT22;10828;47.064;15.422;2023-08-07T00:56:33;15.10;99.90
21340;DHT22;10828;47.064;15.422;2023-08-07T00:58:59;15.10;99.90
21340;DHT22;10828;47.064;15.422;2023-08-07T01:01:28;15.10;99.90
21340;DHT22;10828;47.064;15.422;2023-08-07T01:03:54;15.10;99.90
21340;DHT22;10828;47.064;15.422;2023-08-07T01:06:19;15.10;99.90
21340;DHT22;10828;47.064;15.422;2023-08-07T01:08:46;15.20;99.90
21340;DHT22;10828;47.064;15.422;2023-08-07T01:11:46;15.00;99.90
21340;DHT22;10828;47.064;15.422;2023-08-07T01:17:06;14.90;99.90
21340;DHT22;10828;47.064;15.422;2023-08-07T01:19:34;14.90;99.90
21340;DHT22;10828;47.064;15.422;2023-08-07T01:22:14;14.70;99.90
21340;DHT22;10828;47.064;15.422;2023-08-07T01:24:45;14.70;99.90
21340;DHT22;10828;47.064;15.422;2023-08-07T01:35:24;14.50;99.90
21340;DHT22;10828;47.064;15.422;2023-08-07T01:37:56;14.50;99.90
21340;DHT22;10828;47.064;15.422;2023-08-07T01:40:22;14.30;99.90
21340;DHT22;10828;47.064;15.422;2023-08-07T01:42:48;14.30;99.90
21340;DHT22;10828;47.064;15.422;2023-08-07T01:45:21;14.30;99.90
21340;DHT22;10828;47.064;15.422;2023-08-07T01:47:46;14.20;99.90
21340;DHT22;10828;47.064;15.422;2023-08-07T01:50:12;14.20;99.90
21340;DHT22;10828;47.064;15.422;2023-08-07T01:52:37;14.20;99.90
21340;DHT22;10828;47.064;15.422;2023-08-07T01:55:04;14.20;99.90
21340;DHT22;10828;47.064;15.422;2023-08-07T01:57:30;14.10;99.90
21340;DHT22;10828;47.064;15.422;2023-08-07T01:59:58;14.10;99.90
21340;DHT22;10828;47.064;15.422;2023-08-07T02:02:23;14.00;99.90
21340;DHT22;10828;47.064;15.422;2023-08-07T02:04:49;14.00;99.90
21340;DHT22;10828;47.064;15.422;2023-08-07T02:07:15;13.90;99.90
21340;DHT22;10828;47.064;15.422;2023-08-07T02:09:40;13.80;99.90
21340;DHT22;10828;47.064;15.422;2023-08-07T02:12:06;13.80;99.90
21340;DHT22;10828;47.064;15.422;2023-08-07T02:14:31;13.80;99.90
21340;DHT22;10828;47.064;15.422;2023-08-07T02:16:57;13.80;99.90
21340;DHT22;10828;47.064;15.422;2023-08-07T02:19:23;13.70;99.90
21340;DHT22;10828;47.064;15.422;2023-08-07T02:21:49;13.70;99.90
21340;DHT22;10828;47.064;15.422;2023-08-07T02:24:15;13.70;99.90
21340;DHT22;10828;47.064;15.422;2023-08-07T02:26:40;13.60;99.90
21340;DHT22;10828;47.064;15.422;2023-08-07T02:29:06;13.60;99.90
21340;DHT22;10828;47.064;15.422;2023-08-07T02:31:34;13.70;99.90
21340;DHT22;10828;47.064;15.422;2023-08-07T02:33:59;13.70;99.90
21340;DHT22;10828;47.064;15.422;2023-08-07T02:36:26;13.60;99.90
21340;DHT22;10828;47.064;15.422;2023-08-07T02:38:52;13.60;99.90
21340;DHT22;10828;47.064;15.422;2023-08-07T02:41:17;13.50;99.90
21340;DHT22;10828;47.064;15.422;2023-08-07T02:43:43;13.40;99.90
21340;DHT22;10828;47.064;15.422;2023-08-07T02:46:08;13.30;99.90
21340;DHT22;10828;47.064;15.422;2023-08-07T02:48:34;13.30;99.90
21340;DHT22;10828;47.064;15.422;2023-08-07T02:51:00;13.30;99.90
21340;DHT22;10828;47.064;15.422;2023-08-07T02:53:26;13.30;99.90
21340;DHT22;10828;47.064;15.422;2023-08-07T02:55:51;13.20;99.90
21340;DHT22;10828;47.064;15.422;2023-08-07T02:58:17;13.20;99.90
21340;DHT22;10828;47.064;15.422;2023-08-07T03:00:42;13.20;99.90
21340;DHT22;10828;47.064;15.422;2023-08-07T03:03:09;13.30;99.90
21340;DHT22;10828;47.064;15.422;2023-08-07T03:05:34;13.30;99.90
21340;DHT22;10828;47.064;15.422;2023-08-07T03:08:00;13.30;99.90
21340;DHT22;10828;47.064;15.422;2023-08-07T03:10:25;13.30;99.90
21340;DHT22;10828;47.064;15.422;2023-08-07T03:12:51;13.20;99.90
21340;DHT22;10828;47.064;15.422;2023-08-07T03:15:17;13.20;99.90
21340;DHT22;10828;47.064;15.422;2023-08-07T03:17:43;13.30;99.90
21340;DHT22;10828;47.064;15.422;2023-08-07T03:20:10;13.30;99.90
21340;DHT22;10828;47.064;15.422;2023-08-07T03:22:36;13.30;99.90
21340;DHT22;10828;47.064;15.422;2023-08-07T03:25:01;13.30;99.90
21340;DHT22;10828;47.064;15.422;2023-08-07T03:27:28;13.20;99.90
21340;DHT22;10828;47.064;15.422;2023-08-07T03:29:53;13.20;99.90
21340;DHT22;10828;47.064;15.422;2023-08-07T03:32:19;13.10;99.90
21340;DHT22;10828;47.064;15.422;2023-08-07T03:34:44;13.00;99.90
21340;DHT22;10828;47.064;15.422;2023-08-07T03:37:10;12.90;99.90
21340;DHT22;10828;47.064;15.422;2023-08-07T03:39:35;13.00;99.90
21340;DHT22;10828;47.064;15.422;2023-08-07T03:42:01;12.90;99.90
21340;DHT22;10828;47.064;15.422;2023-08-07T03:44:26;12.90;99.90
21340;DHT22;10828;47.064;15.422;2023-08-07T03:46:52;12.90;99.90
21340;DHT22;10828;47.064;15.422;2023-08-07T03:49:19;12.90;99.90
21340;DHT22;10828;47.064;15.422;2023-08-07T03:51:44;12.90;99.90
21340;DHT22;10828;47.064;15.422;2023-08-07T03:54:11;12.90;99.90
21340;DHT22;10828;47.064;15.422;2023-08-07T03:56:36;12.90;99.90
21340;DHT22;10828;47.064;15.422;2023-08-07T03:59:03;12.90;99.90
21340;DHT22;10828;47.064;15.422;2023-08-07T04:01:29;12.90;99.90
21340;DHT22;10828;47.064;15.422;2023-08-07T04:03:54;12.90;99.90
21340;DHT22;10828;47.064;15.422;2023-08-07T04:06:20;12.90;99.90
21340;DHT22;10828;47.064;15.422;2023-08-07T04:08:46;12.90;99.90
21340;DHT22;10828;47.064;15.422;2023-08-07T04:11:12;12.90;99.90
21340;DHT22;10828;47.064;15.422;2023-08-07T04:13:38;12.80;99.90
21340;DHT22;10828;47.064;15.422;2023-08-07T04:16:04;12.90;99.90
21340;DHT22;10828;47.064;15.422;2023-08-07T04:18:31;13.00;99.90
21340;DHT22;10828;47.064;15.422;2023-08-07T04:20:57;13.00;99.90
21340;DHT22;10828;47.064;15.422;2023-08-07T04:23:23;13.00;99.90
21340;DHT22;10828;47.064;15.422;2023-08-07T04:25:55;13.00;99.90
21340;DHT22;10828;47.064;15.422;2023-08-07T04:28:21;13.00;99.90
21340;DHT22;10828;47.064;15.422;2023-08-07T04:30:49;13.00;99.90
21340;DHT22;10828;47.064;15.422;2023-08-07T04:33:19;13.10;99.90
21340;DHT22;10828;47.064;15.422;2023-08-07T04:35:45;13.10;99.90
21340;DHT22;10828;47.064;15.422;2023-08-07T04:38:15;13.10;99.90
21340;DHT22;10828;47.064;15.422;2023-08-07T04:40:45;13.10;99.90
21340;DHT22;10828;47.064;15.422;2023-08-07T04:43:13;13.20;99.90
21340;DHT22;10828;47.064;15.422;2023-08-07T04:45:39;13.30;99.90
21340;DHT22;10828;47.064;15.422;2023-08-07T04:48:06;13.30;99.90
21340;DHT22;10828;47.064;15.422;2023-08-07T04:50:32;13.40;99.90
21340;DHT22;10828;47.064;15.422;2023-08-07T04:52:57;13.40;99.90
21340;DHT22;10828;47.064;15.422;2023-08-07T04:55:23;13.40;99.90
21340;DHT22;10828;47.064;15.422;2023-08-07T04:57:48;13.40;99.90
21340;DHT22;10828;47.064;15.422;2023-08-07T05:00:18;13.50;99.90
21340;DHT22;10828;47.064;15.422;2023-08-07T05:02:44;13.40;99.90
21340;DHT22;10828;47.064;15.422;2023-08-07T05:05:09;13.40;99.90
21340;DHT22;10828;47.064;15.422;2023-08-07T05:07:35;13.40;99.90
21340;DHT22;10828;47.064;15.422;2023-08-07T05:10:02;13.50;99.90
21340;DHT22;10828;47.064;15.422;2023-08-07T05:12:28;13.60;99.90
21340;DHT22;10828;47.064;15.422;2023-08-07T05:14:53;13.60;99.90
21340;DHT22;10828;47.064;15.422;2023-08-07T05:17:19;13.70;99.90
21340;DHT22;10828;47.064;15.422;2023-08-07T05:19:46;13.80;99.90
21340;DHT22;10828;47.064;15.422;2023-08-07T05:22:11;13.90;99.90
21340;DHT22;10828;47.064;15.422;2023-08-07T05:24:37;14.00;99.90
21340;DHT22;10828;47.064;15.422;2023-08-07T05:27:13;14.00;99.90
21340;DHT22;10828;47.064;15.422;2023-08-07T05:29:38;14.10;99.90
21340;DHT22;10828;47.064;15.422;2023-08-07T05:32:15;14.20;99.90
21340;DHT22;10828;47.064;15.422;2023-08-07T05:34:41;14.30;99.90
21340;DHT22;10828;47.064;15.422;2023-08-07T05:37:07;14.40;99.90
21340;DHT22;10828;47.064;15.422;2023-08-07T05:39:34;14.40;99.90
21340;DHT22;10828;47.064;15.422;2023-08-07T05:41:59;14.40;99.90
21340;DHT22;10828;47.064;15.422;2023-08-07T05:44:25;14.40;99.90
21340;DHT22;10828;47.064;15.422;2023-08-07T05:46:51;14.40;99.90
21340;DHT22;10828;47.064;15.422;2023-08-07T05:49:16;14.40;99.90
21340;DHT22;10828;47.064;15.422;2023-08-07T05:51:42;14.40;99.90
21340;DHT22;10828;47.064;15.422;2023-08-07T05:54:07;14.60;99.90
21340;DHT22;10828;47.064;15.422;2023-08-07T05:56:33;14.60;99.90
21340;DHT22;10828;47.064;15.422;2023-08-07T05:58:59;14.60;99.90
21340;DHT22;10828;47.064;15.422;2023-08-07T06:01:24;14.60;99.90
21340;DHT22;10828;47.064;15.422;2023-08-07T06:03:57;14.60;99.90
21340;DHT22;10828;47.064;15.422;2023-08-07T06:06:24;14.60;99.90
21340;DHT22;10828;47.064;15.422;2023-08-07T06:08:51;14.70;99.90
21340;DHT22;10828;47.064;15.422;2023-08-07T06:11:17;14.70;99.90
21340;DHT22;10828;47.064;15.422;2023-08-07T06:13:43;14.70;99.90
21340;DHT22;10828;47.064;15.422;2023-08-07T06:16:09;14.90;99.90
21340;DHT22;10828;47.064;15.422;2023-08-07T06:18:36;14.90;99.90
21340;DHT22;10828;47.064;15.422;2023-08-07T06:21:01;14.90;99.90
21340;DHT22;10828;47.064;15.422;2023-08-07T06:23:27;15.00;99.90
21340;DHT22;10828;47.064;15.422;2023-08-07T06:25:52;15.10;99.90
21340;DHT22;10828;47.064;15.422;2023-08-07T06:28:18;15.10;99.90
21340;DHT22;10828;47.064;15.422;2023-08-07T06:30:43;15.20;99.90
21340;DHT22;10828;47.064;15.422;2023-08-07T06:33:10;15.20;99.90
21340;DHT22;10828;47.064;15.422;2023-08-07T06:35:39;15.30;99.90
21340;DHT22;10828;47.064;15.422;2023-08-07T06:38:05;15.30;99.90
21340;DHT22;10828;47.064;15.422;2023-08-07T06:40:31;15.30;99.90
21340;DHT22;10828;47.064;15.422;2023-08-07T06:42:57;15.40;99.90
21340;DHT22;10828;47.064;15.422;2023-08-07T06:45:22;15.40;99.90
21340;DHT22;10828;47.064;15.422;2023-08-07T06:47:48;15.50;99.90
21340;DHT22;10828;47.064;15.422;2023-08-07T06:50:14;15.60;99.90
21340;DHT22;10828;47.064;15.422;2023-08-07T06:52:39;15.70;99.90
21340;DHT22;10828;47.064;15.422;2023-08-07T06:55:06;15.70;99.90
21340;DHT22;10828;47.064;15.422;2023-08-07T06:57:32;15.70;99.90
21340;DHT22;10828;47.064;15.422;2023-08-07T06:59:58;15.80;99.90
21340;DHT22;10828;47.064;15.422;2023-08-07T07:02:23;15.90;99.90
21340;DHT22;10828;47.064;15.422;2023-08-07T07:04:49;16.00;99.90
21340;DHT22;10828;47.064;15.422;2023-08-07T07:07:14;16.00;99.90
21340;DHT22;10828;47.064;15.422;2023-08-07T07:09:40;16.10;99.90
21340;DHT22;10828;47.064;15.422;2023-08-07T07:12:06;16.20;99.90
21340;DHT22;10828;47.064;15.422;2023-08-07T07:14:32;16.20;99.90
21340;DHT22;10828;47.064;15.422;2023-08-07T07:16:59;16.20;99.90
21340;DHT22;10828;47.064;15.422;2023-08-07T07:19:24;16.30;99.90
21340;DHT22;10828;47.064;15.422;2023-08-07T07:21:50;16.40;99.90
21340;DHT22;10828;47.064;15.422;2023-08-07T07:24:15;16.60;99.90
21340;DHT22;10828;47.064;15.422;2023-08-07T07:26:41;16.70;99.90
21340;DHT22;10828;47.064;15.422;2023-08-07T07:29:06;16.80;99.90
21340;DHT22;10828;47.064;15.422;2023-08-07T07:31:32;16.80;99.90
21340;DHT22;10828;47.064;15.422;2023-08-07T07:33:58;16.90;99.90
21340;DHT22;10828;47.064;15.422;2023-08-07T07:36:23;17.00;99.90
21340;DHT22;10828;47.064;15.422;2023-08-07T07:38:49;17.10;99.90
21340;DHT22;10828;47.064;15.422;2023-08-07T07:41:15;17.20;99.90
21340;DHT22;10828;47.064;15.422;2023-08-07T07:43:41;17.40;99.90
21340;DHT22;10828;47.064;15.422;2023-08-07T07:46:06;17.50;99.90
21340;DHT22;10828;47.064;15.422;2023-08-07T07:48:32;17.60;99.90
21340;DHT22;10828;47.064;15.422;2023-08-07T07:50:59;17.70;99.90
21340;DHT22;10828;47.064;15.422;2023-08-07T07:53:26;17.80;99.90
21340;DHT22;10828;47.064;15.422;2023-08-07T07:55:51;17.80;99.90
21340;DHT22;10828;47.064;15.422;2023-08-07T07:58:17;17.90;99.90
21340;DHT22;10828;47.064;15.422;2023-08-07T08:00:42;17.90;99.90
21340;DHT22;10828;47.064;15.422;2023-08-07T08:03:08;18.00;99.90
21340;DHT22;10828;47.064;15.422;2023-08-07T08:05:34;18.00;99.90
21340;DHT22;10828;47.064;15.422;2023-08-07T08:08:00;18.00;99.90
21340;DHT22;10828;47.064;15.422;2023-08-07T08:10:27;18.10;99.90
21340;DHT22;10828;47.064;15.422;2023-08-07T08:12:55;18.20;99.90
21340;DHT22;10828;47.064;15.422;2023-08-07T08:15:21;18.20;99.90
21340;DHT22;10828;47.064;15.422;2023-08-07T08:17:47;18.30;99.90
21340;DHT22;10828;47.064;15.422;2023-08-07T08:20:13;18.30;99.90
21340;DHT22;10828;47.064;15.422;2023-08-07T08:22:44;18.40;99.90
21340;DHT22;10828;47.064;15.422;2023-08-07T08:25:09;18.60;99.90
21340;DHT22;10828;47.064;15.422;2023-08-07T08:27:39;18.60;99.90
21340;DHT22;10828;47.064;15.422;2023-08-07T08:30:06;18.70;99.90
21340;DHT22;10828;47.064;15.422;2023-08-07T08:32:31;18.80;99.90
21340;DHT22;10828;47.064;15.422;2023-08-07T08:34:57;18.90;99.90
21340;DHT22;10828;47.064;15.422;2023-08-07T08:37:23;18.90;99.90
21340;DHT22;10828;47.064;15.422;2023-08-07T08:39:48;19.00;99.90
21340;DHT22;10828;47.064;15.422;2023-08-07T08:42:14;19.00;99.90
21340;DHT22;10828;47.064;15.422;2023-08-07T08:44:41;18.90;99.90
21340;DHT22;10828;47.064;15.422;2023-08-07T08:47:10;18.90;99.90
21340;DHT22;10828;47.064;15.422;2023-08-07T08:49:40;18.90;99.90
21340;DHT22;10828;47.064;15.422;2023-08-07T08:52:08;19.00;99.90
21340;DHT22;10828;47.064;15.422;2023-08-07T08:54:34;19.00;99.90
21340;DHT22;10828;47.064;15.422;2023-08-07T08:57:00;19.20;99.90
21340;DHT22;10828;47.064;15.422;2023-08-07T08:59:26;19.30;99.90
21340;DHT22;10828;47.064;15.422;2023-08-07T09:01:52;19.40;99.90
21340;DHT22;10828;47.064;15.422;2023-08-07T09:04:18;19.50;99.90
21340;DHT22;10828;47.064;15.422;2023-08-07T09:06:44;19.60;99.90
21340;DHT22;10828;47.064;15.422;2023-08-07T09:09:12;19.70;99.90
21340;DHT22;10828;47.064;15.422;2023-08-07T09:11:39;19.60;99.90
21340;DHT22;10828;47.064;15.422;2023-08-07T09:14:06;19.60;99.90
21340;DHT22;10828;47.064;15.422;2023-08-07T09:16:32;19.70;99.90
21340;DHT22;10828;47.064;15.422;2023-08-07T09:18:58;19.60;99.90
21340;DHT22;10828;47.064;15.422;2023-08-07T09:21:23;19.80;99.90
21340;DHT22;10828;47.064;15.422;2023-08-07T09:23:49;19.90;99.90
21340;DHT22;10828;47.064;15.422;2023-08-07T09:26:21;20.00;99.90
21340;DHT22;10828;47.064;15.422;2023-08-07T09:28:51;20.20;99.90
21340;DHT22;10828;47.064;15.422;2023-08-07T09:31:18;20.30;99.90
21340;DHT22;10828;47.064;15.422;2023-08-07T09:33:47;20.30;99.90
21340;DHT22;10828;47.064;15.422;2023-08-07T09:36:12;20.30;99.90
21340;DHT22;10828;47.064;15.422;2023-08-07T09:38:38;20.20;99.90
21340;DHT22;10828;47.064;15.422;2023-08-07T09:41:03;20.10;99.90
21340;DHT22;10828;47.064;15.422;2023-08-07T09:43:30;20.20;99.90
21340;DHT22;10828;47.064;15.422;2023-08-07T09:46:06;20.30;99.90
21340;DHT22;10828;47.064;15.422;2023-08-07T09:48:32;19.90;99.90
21340;DHT22;10828;47.064;15.422;2023-08-07T09:51:04;19.80;99.90
21340;DHT22;10828;47.064;15.422;2023-08-07T09:53:30;19.80;99.90
21340;DHT22;10828;47.064;15.422;2023-08-07T09:55:56;19.90;99.90
21340;DHT22;10828;47.064;15.422;2023-08-07T09:58:22;20.10;99.90
21340;DHT22;10828;47.064;15.422;2023-08-07T10:00:48;20.20;99.90
21340;DHT22;10828;47.064;15.422;2023-08-07T10:03:14;20.10;99.90
21340;DHT22;10828;47.064;15.422;2023-08-07T10:05:43;20.10;99.90
21340;DHT22;10828;47.064;15.422;2023-08-07T10:08:10;20.10;99.90
21340;DHT22;10828;47.064;15.422;2023-08-07T10:10:37;20.10;99.90
21340;DHT22;10828;47.064;15.422;2023-08-07T10:13:03;20.00;99.90
21340;DHT22;10828;47.064;15.422;2023-08-07T10:15:30;19.80;99.90
21340;DHT22;10828;47.064;15.422;2023-08-07T10:17:56;19.70;99.90
21340;DHT22;10828;47.064;15.422;2023-08-07T10:20:24;19.80;99.90
21340;DHT22;10828;47.064;15.422;2023-08-07T10:22:51;19.80;99.90
21340;DHT22;10828;47.064;15.422;2023-08-07T10:25:20;19.80;99.90
21340;DHT22;10828;47.064;15.422;2023-08-07T10:27:49;19.80;99.90
21340;DHT22;10828;47.064;15.422;2023-08-07T10:30:17;19.80;99.90
21340;DHT22;10828;47.064;15.422;2023-08-07T10:32:45;20.00;99.90
21340;DHT22;10828;47.064;15.422;2023-08-07T10:35:30;20.20;99.90
21340;DHT22;10828;47.064;15.422;2023-08-07T10:38:06;20.30;99.90
21340;DHT22;10828;47.064;15.422;2023-08-07T10:40:32;20.40;99.90
21340;DHT22;10828;47.064;15.422;2023-08-07T10:42:59;20.20;99.90
21340;DHT22;10828;47.064;15.422;2023-08-07T10:45:27;20.40;99.90
21340;DHT22;10828;47.064;15.422;2023-08-07T10:48:08;20.50;99.90
21340;DHT22;10828;47.064;15.422;2023-08-07T10:50:45;20.30;99.90
21340;DHT22;10828;47.064;15.422;2023-08-07T10:53:32;20.20;99.90
21340;DHT22;10828;47.064;15.422;2023-08-07T10:56:02;20.40;99.90
21340;DHT22;10828;47.064;15.422;2023-08-07T10:58:32;20.50;99.90
21340;DHT22;10828;47.064;15.422;2023-08-07T11:03:53;20.80;99.90
21340;DHT22;10828;47.064;15.422;2023-08-07T11:06:25;20.80;99.90
21340;DHT22;10828;47.064;15.422;2023-08-07T11:08:52;20.80;99.90
21340;DHT22;10828;47.064;15.422;2023-08-07T11:11:18;20.70;99.90
21340;DHT22;10828;47.064;15.422;2023-08-07T11:13:44;20.60;99.90
21340;DHT22;10828;47.064;15.422;2023-08-07T11:16:09;20.70;99.90
21340;DHT22;10828;47.064;15.422;2023-08-07T11:18:35;20.80;99.90
21340;DHT22;10828;47.064;15.422;2023-08-07T11:21:11;20.70;99.90
21340;DHT22;10828;47.064;15.422;2023-08-07T11:23:37;20.80;99.90
21340;DHT22;10828;47.064;15.422;2023-08-07T11:26:03;20.80;99.90
21340;DHT22;10828;47.064;15.422;2023-08-07T11:28:29;20.80;99.90
21340;DHT22;10828;47.064;15.422;2023-08-07T11:30:56;20.80;99.90
21340;DHT22;10828;47.064;15.422;2023-08-07T11:33:23;20.80;99.90
21340;DHT22;10828;47.064;15.422;2023-08-07T11:35:50;20.80;99.90
21340;DHT22;10828;47.064;15.422;2023-08-07T11:38:29;20.80;99.90
21340;DHT22;10828;47.064;15.422;2023-08-07T11:41:06;20.80;99.90
21340;DHT22;10828;47.064;15.422;2023-08-07T11:43:34;20.80;99.90
21340;DHT22;10828;47.064;15.422;2023-08-07T11:46:08;20.70;99.90
21340;DHT22;10828;47.064;15.422;2023-08-07T11:48:35;20.80;99.90
21340;DHT22;10828;47.064;15.422;2023-08-07T11:51:01;20.80;99.90
21340;DHT22;10828;47.064;15.422;2023-08-07T11:53:37;20.90;99.90
21340;DHT22;10828;47.064;15.422;2023-08-07T11:56:05;21.00;99.90
21340;DHT22;10828;47.064;15.422;2023-08-07T11:58:43;20.90;99.90
21340;DHT22;10828;47.064;15.422;2023-08-07T12:01:19;20.90;99.90
21340;DHT22;10828;47.064;15.422;2023-08-07T12:06:30;21.00;99.90
21340;DHT22;10828;47.064;15.422;2023-08-07T12:08:57;20.90;99.90
21340;DHT22;10828;47.064;15.422;2023-08-07T12:11:23;20.80;99.90
21340;DHT22;10828;47.064;15.422;2023-08-07T12:13:50;20.80;99.90
21340;DHT22;10828;47.064;15.422;2023-08-07T12:16:16;20.80;99.90
21340;DHT22;10828;47.064;15.422;2023-08-07T12:18:50;20.80;99.90
21340;DHT22;10828;47.064;15.422;2023-08-07T12:21:18;20.90;99.90
21340;DHT22;10828;47.064;15.422;2023-08-07T12:23:49;20.90;99.90
21340;DHT22;10828;47.064;15.422;2023-08-07T12:26:16;20.90;99.90
21340;DHT22;10828;47.064;15.422;2023-08-07T12:28:42;20.70;99.90
21340;DHT22;10828;47.064;15.422;2023-08-07T12:31:07;20.70;99.90
21340;DHT22;10828;47.064;15.422;2023-08-07T12:33:33;20.80;99.90
21340;DHT22;10828;47.064;15.422;2023-08-07T12:35:59;20.80;99.90
21340;DHT22;10828;47.064;15.422;2023-08-07T12:38:25;20.70;99.90
21340;DHT22;10828;47.064;15.422;2023-08-07T12:40:51;20.70;99.90
21340;DHT22;10828;47.064;15.422;2023-08-07T12:43:17;20.70;99.90
21340;DHT22;10828;47.064;15.422;2023-08-07T12:45:43;20.40;99.90
21340;DHT22;10828;47.064;15.422;2023-08-07T12:48:08;20.50;99.90
21340;DHT22;10828;47.064;15.422;2023-08-07T12:50:34;20.50;99.90
21340;DHT22;10828;47.064;15.422;2023-08-07T12:53:01;20.60;99.90
21340;DHT22;10828;47.064;15.422;2023-08-07T12:55:27;20.50;99.90
21340;DHT22;10828;47.064;15.422;2023-08-07T12:57:53;20.40;99.90
21340;DHT22;10828;47.064;15.422;2023-08-07T13:00:20;20.20;99.90
21340;DHT22;10828;47.064;15.422;2023-08-07T13:02:47;20.30;99.90
21340;DHT22;10828;47.064;15.422;2023-08-07T13:05:13;20.30;99.90
21340;DHT22;10828;47.064;15.422;2023-08-07T13:07:39;20.40;99.90
21340;DHT22;10828;47.064;15.422;2023-08-07T13:10:07;20.60;99.90
21340;DHT22;10828;47.064;15.422;2023-08-07T13:12:37;20.70;99.90
21340;DHT22;10828;47.064;15.422;2023-08-07T13:15:04;20.80;99.90
21340;DHT22;10828;47.064;15.422;2023-08-07T13:17:37;20.90;99.90
21340;DHT22;10828;47.064;15.422;2023-08-07T13:20:04;20.80;99.90
21340;DHT22;10828;47.064;15.422;2023-08-07T13:22:37;20.80;99.90
21340;DHT22;10828;47.064;15.422;2023-08-07T13:25:03;20.90;99.90
21340;DHT22;10828;47.064;15.422;2023-08-07T13:27:30;20.90;99.90
21340;DHT22;10828;47.064;15.422;2023-08-07T13:29:56;21.00;99.90
21340;DHT22;10828;47.064;15.422;2023-08-07T13:32:21;20.90;99.90
21340;DHT22;10828;47.064;15.422;2023-08-07T13:34:47;20.90;99.90
21340;DHT22;10828;47.064;15.422;2023-08-07T13:37:13;20.90;99.90
21340;DHT22;10828;47.064;15.422;2023-08-07T13:39:40;20.80;99.90
21340;DHT22;10828;47.064;15.422;2023-08-07T13:42:06;20.90;99.90
21340;DHT22;10828;47.064;15.422;2023-08-07T13:44:32;20.80;99.90
21340;DHT22;10828;47.064;15.422;2023-08-07T13:46:58;20.80;99.90
21340;DHT22;10828;47.064;15.422;2023-08-07T13:49:25;20.80;99.90
21340;DHT22;10828;47.064;15.422;2023-08-07T13:51:51;20.80;99.90
21340;DHT22;10828;47.064;15.422;2023-08-07T13:54:21;20.80;99.90
21340;DHT22;10828;47.064;15.422;2023-08-07T13:56:47;20.80;99.90
21340;DHT22;10828;47.064;15.422;2023-08-07T13:59:16;20.80;99.90
21340;DHT22;10828;47.064;15.422;2023-08-07T14:01:45;20.80;99.90
21340;DHT22;10828;47.064;15.422;2023-08-07T14:04:12;20.90;99.90
21340;DHT22;10828;47.064;15.422;2023-08-07T14:06:40;21.00;99.90
21340;DHT22;10828;47.064;15.422;2023-08-07T14:09:11;20.80;99.90
21340;DHT22;10828;47.064;15.422;2023-08-07T14:11:40;20.60;99.90
21340;DHT22;10828;47.064;15.422;2023-08-07T14:14:08;20.60;99.90
21340;DHT22;10828;47.064;15.422;2023-08-07T14:16:34;20.60;99.90
21340;DHT22;10828;47.064;15.422;2023-08-07T14:19:01;20.60;99.90
21340;DHT22;10828;47.064;15.422;2023-08-07T14:21:27;20.80;99.90
21340;DHT22;10828;47.064;15.422;2023-08-07T14:23:52;20.80;99.90
21340;DHT22;10828;47.064;15.422;2023-08-07T14:26:18;20.80;99.90
21340;DHT22;10828;47.064;15.422;2023-08-07T14:28:46;20.80;99.90
21340;DHT22;10828;47.064;15.422;2023-08-07T14:31:12;20.80;99.90
21340;DHT22;10828;47.064;15.422;2023-08-07T14:33:38;20.50;99.90
21340;DHT22;10828;47.064;15.422;2023-08-07T14:36:04;20.50;99.90
21340;DHT22;10828;47.064;15.422;2023-08-07T14:38:30;20.50;99.90
21340;DHT22;10828;47.064;15.422;2023-08-07T14:40:56;20.50;99.90
21340;DHT22;10828;47.064;15.422;2023-08-07T14:43:22;20.60;99.90
21340;DHT22;10828;47.064;15.422;2023-08-07T14:45:48;20.70;99.90
21340;DHT22;10828;47.064;15.422;2023-08-07T14:48:14;20.70;99.90
21340;DHT22;10828;47.064;15.422;2023-08-07T14:50:40;20.70;99.90
21340;DHT22;10828;47.064;15.422;2023-08-07T14:53:05;20.60;99.90
21340;DHT22;10828;47.064;15.422;2023-08-07T14:55:31;20.10;99.90
21340;DHT22;10828;47.064;15.422;2023-08-07T14:57:57;20.10;99.90
21340;DHT22;10828;47.064;15.422;2023-08-07T15:00:23;20.10;99.90
21340;DHT22;10828;47.064;15.422;2023-08-07T15:02:50;20.20;99.90
21340;DHT22;10828;47.064;15.422;2023-08-07T15:05:15;20.30;99.90
21340;DHT22;10828;47.064;15.422;2023-08-07T15:07:41;20.10;99.90
21340;DHT22;10828;47.064;15.422;2023-08-07T15:10:08;20.10;99.90
21340;DHT22;10828;47.064;15.422;2023-08-07T15:12:34;20.10;99.90
21340;DHT22;10828;47.064;15.422;2023-08-07T15:15:00;20.10;99.90
21340;DHT22;10828;47.064;15.422;2023-08-07T15:17:25;20.20;99.90
21340;DHT22;10828;47.064;15.422;2023-08-07T15:19:51;20.20;99.90
21340;DHT22;10828;47.064;15.422;2023-08-07T15:22:16;20.30;99.90
21340;DHT22;10828;47.064;15.422;2023-08-07T15:24:42;20.50;99.90
21340;DHT22;10828;47.064;15.422;2023-08-07T15:27:08;20.50;99.90
21340;DHT22;10828;47.064;15.422;2023-08-07T15:29:33;20.60;99.90